Time;durP1;ratioP1;P1;durP2;ratioP2;P2;SDS_P1;SDS_P2;PMS_P1;PMS_P2;Temp;Humidity;BMP_temperature;BMP_pressure;BME280_temperature;BME280_humidity;BME280_pressure;Samples;Min_cycle;Max_cycle;Signal;HPM_P1;HPM_P2
2023/10/02 00:01:24;;;;;;;30.63;13.73;;;;;;;-144.73;100.00;54547.28;5086458;28;20031;-76
2023/10/02 00:04:16;;;;;;;30.38;13.07;;;;;;;-144.73;100.00;54559.59;5110313;28;20080;-75
2023/10/02 00:06:36;;;;;;;27.88;13.77;;;;;;;-144.73;100.00;54563.69;5110182;28;20024;-75
2023/10/02 00:09:05;;;;;;;30.38;13.60;;;;;;;-144.73;100.00;54573.97;5090608;28;20073;-75
2023/10/02 00:11:41;;;;;;;32.88;12.32;;;;;;;-144.73;100.00;54580.13;5109813;28;20087;-75
2023/10/02 00:14:19;;;;;;;35.22;15.63;;;;;;;-144.73;100.00;54592.44;5091591;28;20031;-76
2023/10/02 00:17:04;;;;;;;35.15;15.13;;;;;;;-144.73;100.00;54584.22;5092923;28;20019;-76
2023/10/02 00:19:38;;;;;;;35.75;13.60;;;;;;;-144.73;100.00;54547.28;5109707;28;20039;-76
2023/10/02 00:22:34;;;;;;;33.20;13.88;;;;;;;-144.73;100.00;54573.97;5093264;28;20020;-77
2023/10/02 00:24:57;;;;;;;36.25;15.80;;;;;;;-144.73;100.00;54571.91;5111514;28;20110;-77
2023/10/02 00:27:23;;;;;;;29.55;14.38;;;;;;;-144.73;100.00;54563.69;5095809;28;20031;-77
2023/10/02 00:29:51;;;;;;;34.92;14.82;;;;;;;-144.73;100.00;54569.84;5108606;28;20103;-76
2023/10/02 00:32:19;;;;;;;32.95;14.82;;;;;;;-144.73;100.00;54582.16;5096224;28;20020;-77
2023/10/02 00:34:51;;;;;;;31.27;14.10;;;;;;;-144.73;100.00;54565.75;5087361;28;20040;-75
2023/10/02 00:37:17;;;;;;;37.33;16.13;;;;;;;-144.73;100.00;54514.44;5090974;28;20019;-75
2023/10/02 00:39:47;;;;;;;35.00;15.25;;;;;;;-144.73;100.00;54543.16;5094540;28;20031;-75
2023/10/02 00:45:01;;;;;;;32.45;14.55;;;;;;;-144.73;100.00;54590.38;5112614;28;20031;-75
2023/10/02 00:47:41;;;;;;;34.20;14.90;;;;;;;-144.73;100.00;54580.13;5107659;28;20031;-75
2023/10/02 00:50:10;;;;;;;34.75;14.82;;;;;;;-144.73;100.00;54563.69;5095298;28;20027;-77
2023/10/02 00:52:44;;;;;;;30.63;14.68;;;;;;;-144.73;100.00;54559.59;5094894;28;20043;-76
2023/10/02 00:55:12;;;;;;;36.45;15.40;;;;;;;-144.73;100.00;54580.13;5109231;28;20061;-77
2023/10/02 00:57:41;;;;;;;35.33;14.55;;;;;;;-144.73;100.00;54543.16;5111460;28;20036;-77
2023/10/02 01:00:19;;;;;;;34.70;15.13;;;;;;;-144.73;100.00;54510.31;5112012;28;20055;-76
2023/10/02 01:02:50;;;;;;;39.10;15.70;;;;;;;-144.73;100.00;54573.97;5109485;28;20020;-77
2023/10/02 01:05:21;;;;;;;33.58;15.50;;;;;;;-144.73;100.00;54557.53;5112020;28;20030;-76
2023/10/02 01:07:53;;;;;;;32.33;13.93;;;;;;;-144.73;100.00;54584.22;5093889;28;20435;-76
2023/10/02 01:10:19;;;;;;;31.27;13.85;;;;;;;-144.73;100.00;54596.53;5113034;28;20385;-75
2023/10/02 01:12:49;;;;;;;34.50;14.85;;;;;;;-144.73;100.00;54547.28;5094611;28;20118;-75
2023/10/02 01:15:19;;;;;;;29.55;14.05;;;;;;;-144.73;100.00;54567.81;5111845;28;20077;-75
2023/10/02 01:17:48;;;;;;;37.30;15.25;;;;;;;-144.73;100.00;54592.44;5094554;28;20020;-75
2023/10/02 01:20:21;;;;;;;33.05;13.70;;;;;;;-144.73;100.00;54596.53;5094813;28;20102;-75
2023/10/02 01:22:52;;;;;;;36.75;15.10;;;;;;;-144.73;100.00;54559.59;5094335;28;20058;-75
2023/10/02 01:25:23;;;;;;;38.42;15.77;;;;;;;-144.73;100.00;54539.06;5110832;28;20016;-75
2023/10/02 01:27:51;;;;;;;31.80;14.95;;;;;;;-144.73;100.00;54612.97;5110919;28;20040;-75
2023/10/02 01:30:20;;;;;;;38.97;15.45;;;;;;;-144.73;100.00;54590.38;5111331;28;20015;-75
2023/10/02 01:35:36;;;;;;;35.58;14.55;;;;;;;-144.73;100.00;54596.53;5112621;28;20015;-76
2023/10/02 01:38:12;;;;;;;33.45;14.43;;;;;;;-144.73;100.00;54551.38;5092734;28;20046;-76
2023/10/02 01:40:43;;;;;;;33.53;13.18;;;;;;;-144.73;100.00;54625.28;5111640;28;20015;-76
2023/10/02 01:43:13;;;;;;;43.10;15.30;;;;;;;-144.73;100.00;54543.16;5110300;28;20032;-76
2023/10/02 01:45:43;;;;;;;38.13;15.95;;;;;;;-144.73;100.00;54571.91;5098620;28;20332;-76
2023/10/02 01:48:13;;;;;;;34.60;14.87;;;;;;;-144.73;100.00;54563.69;5093540;28;20032;-76
2023/10/02 01:50:39;;;;;;;35.88;14.63;;;;;;;-144.73;100.00;54592.44;5094521;28;20020;-77
2023/10/02 01:53:08;;;;;;;38.20;15.68;;;;;;;-144.73;100.00;54571.91;5093562;28;20100;-76
2023/10/02 01:55:36;;;;;;;33.53;14.65;;;;;;;-144.73;100.00;54557.53;5090557;28;20535;-75
2023/10/02 01:58:18;;;;;;;31.88;14.13;;;;;;;-144.73;100.00;54606.78;5111019;28;20038;-75
2023/10/02 02:00:45;;;;;;;34.50;15.00;;;;;;;-144.73;100.00;54608.84;5107507;28;20019;-76
2023/10/02 02:03:14;;;;;;;33.97;16.02;;;;;;;-144.73;100.00;54576.00;5090815;28;20046;-75
2023/10/02 02:05:40;;;;;;;30.45;14.27;;;;;;;-144.73;100.00;54567.81;5098831;28;20084;-75
2023/10/02 02:08:21;;;;;;;31.88;15.07;;;;;;;-144.73;100.00;54576.00;5093028;28;20027;-76
2023/10/02 02:10:48;;;;;;;39.83;14.98;;;;;;;-144.73;100.00;54600.63;5096550;28;20023;-75
2023/10/02 02:13:14;;;;;;;34.40;15.13;;;;;;;-144.73;100.00;54573.97;5093571;28;20024;-75
2023/10/02 02:16:06;;;;;;;45.08;16.67;;;;;;;-144.73;100.00;54549.31;5094285;28;20018;-75
2023/10/02 02:18:32;;;;;;;31.25;15.52;;;;;;;-144.73;100.00;54539.06;5092030;28;20035;-76
2023/10/02 02:20:58;;;;;;;37.05;16.45;;;;;;;-144.73;100.00;54596.53;5108119;28;20036;-75
2023/10/02 02:23:27;;;;;;;35.08;15.50;;;;;;;-144.73;100.00;54584.22;5089967;28;20073;-75
2023/10/02 02:25:53;;;;;;;36.85;15.25;;;;;;;-144.73;100.00;54588.31;5110835;28;20079;-75
2023/10/02 02:28:18;;;;;;;32.15;15.52;;;;;;;-144.73;100.00;54580.13;5092860;28;20032;-75
2023/10/02 02:30:44;;;;;;;34.85;15.27;;;;;;;-144.73;100.00;54625.28;5093892;28;20011;-75
2023/10/02 02:33:12;;;;;;;36.00;15.77;;;;;;;-144.73;100.00;54584.22;5092894;28;20110;-75
2023/10/02 02:35:39;;;;;;;36.80;17.20;;;;;;;-144.73;100.00;54600.63;5093408;28;20127;-75
2023/10/02 02:38:16;;;;;;;33.55;15.48;;;;;;;-144.73;100.00;54586.28;5109344;28;20039;-75
2023/10/02 02:40:41;;;;;;;36.40;14.88;;;;;;;-144.73;100.00;54563.69;5093610;28;20025;-74
2023/10/02 02:43:18;;;;;;;34.15;14.88;;;;;;;-144.73;100.00;54573.97;5093194;28;20035;-74
2023/10/02 02:45:45;;;;;;;36.55;14.75;;;;;;;-144.73;100.00;54610.91;5089789;28;20069;-78
2023/10/02 02:48:10;;;;;;;37.00;15.52;;;;;;;-144.73;100.00;54543.16;5110671;28;20050;-77
2023/10/02 02:50:40;;;;;;;31.80;15.43;;;;;;;-144.73;100.00;54594.47;5111610;28;20094;-75
2023/10/02 02:53:22;;;;;;;40.28;15.57;;;;;;;-144.73;100.00;54576.00;5092948;28;20032;-75
2023/10/02 02:56:23;;;;;;;33.70;15.18;;;;;;;-144.73;100.00;54580.13;5109361;28;20037;-75
2023/10/02 02:58:55;;;;;;;35.40;16.27;;;;;;;-144.73;100.00;54576.00;5100138;28;20109;-76
2023/10/02 03:01:22;;;;;;;37.72;16.40;;;;;;;-144.73;100.00;54557.53;5093412;28;20028;-75
2023/10/02 03:03:51;;;;;;;34.10;14.98;;;;;;;-144.73;100.00;54571.91;5108085;28;20046;-75
2023/10/02 03:06:21;;;;;;;39.83;16.83;;;;;;;-144.73;100.00;54539.06;5093026;28;20043;-75
2023/10/02 03:08:46;;;;;;;30.05;15.40;;;;;;;-144.73;100.00;54547.28;5110035;28;20502;-77
2023/10/02 03:11:18;;;;;;;31.95;15.82;;;;;;;-144.73;100.00;54576.00;5111269;28;20034;-77
2023/10/02 03:13:43;;;;;;;38.20;16.92;;;;;;;-144.73;100.00;54571.91;5092091;28;20501;-75
2023/10/02 03:16:13;;;;;;;34.30;15.77;;;;;;;-144.73;100.00;54571.91;5111593;28;20034;-75
2023/10/02 03:18:43;;;;;;;38.70;16.77;;;;;;;-144.73;100.00;54571.91;5110088;28;20032;-75
2023/10/02 03:21:15;;;;;;;40.00;16.25;;;;;;;-144.73;100.00;54584.22;5107814;28;20115;-75
2023/10/02 03:23:42;;;;;;;39.90;16.02;;;;;;;-144.73;100.00;54608.84;5109019;28;20032;-75
2023/10/02 03:29:02;;;;;;;35.13;16.48;;;;;;;-144.73;100.00;54584.22;5109903;28;20024;-75
2023/10/02 03:31:36;;;;;;;38.67;17.35;;;;;;;-144.73;100.00;54576.00;5107654;28;20088;-75
2023/10/02 03:34:27;;;;;;;46.53;17.20;;;;;;;-144.73;100.00;54608.84;5094501;28;20028;-75
2023/10/02 03:37:14;;;;;;;32.60;14.90;;;;;;;-144.73;100.00;54567.81;5108883;28;20409;-75
2023/10/02 03:39:52;;;;;;;37.97;17.40;;;;;;;-144.73;100.00;54621.16;5084943;28;20040;-76
2023/10/02 03:42:22;;;;;;;37.95;18.30;;;;;;;-144.73;100.00;54615.00;5110686;28;20470;-75
2023/10/02 03:44:54;;;;;;;38.25;17.73;;;;;;;-144.73;100.00;54547.28;5092165;28;20027;-76
2023/10/02 03:47:20;;;;;;;37.83;16.48;;;;;;;-144.73;100.00;54567.81;5089640;28;20044;-78
2023/10/02 03:49:47;;;;;;;41.47;17.45;;;;;;;-144.73;100.00;54576.00;5094616;28;20031;-74
2023/10/02 03:52:14;;;;;;;40.97;17.27;;;;;;;-144.73;100.00;54569.84;5092902;28;20097;-75
2023/10/02 03:54:45;;;;;;;38.67;18.13;;;;;;;-144.73;100.00;54645.78;5109022;28;20034;-75
2023/10/02 03:57:37;;;;;;;39.65;17.35;;;;;;;-144.73;100.00;54573.97;5094211;28;20028;-75
2023/10/02 04:00:09;;;;;;;41.40;18.30;;;;;;;-144.73;100.00;54592.44;5113336;28;20036;-75
2023/10/02 04:02:36;;;;;;;40.75;17.33;;;;;;;-144.73;100.00;54584.22;5111352;28;20030;-75
2023/10/02 04:05:04;;;;;;;34.85;17.58;;;;;;;-144.73;100.00;54600.63;5113230;28;20030;-77
2023/10/02 04:07:30;;;;;;;42.63;18.05;;;;;;;-144.73;100.00;54586.28;5113689;28;20492;-76
2023/10/02 04:09:56;;;;;;;44.22;18.88;;;;;;;-144.73;100.00;54592.44;5094799;28;20020;-75
2023/10/02 04:12:22;;;;;;;39.80;17.70;;;;;;;-144.73;100.00;54561.63;5096322;28;20036;-75
2023/10/02 04:14:48;;;;;;;45.33;18.58;;;;;;;-144.73;100.00;54567.81;5107274;28;20028;-76
2023/10/02 04:19:48;;;;;;;45.70;19.35;;;;;;;-144.73;100.00;54557.53;5113051;28;20558;-76
2023/10/02 04:22:22;;;;;;;49.25;19.25;;;;;;;-144.73;100.00;54596.53;5112212;28;20094;-76
2023/10/02 04:24:58;;;;;;;40.08;18.60;;;;;;;-144.73;100.00;54608.84;5094673;28;20031;-76
2023/10/02 04:32:34;;;;;;;37.25;18.15;;;;;;;-144.73;100.00;54584.22;5112919;28;20020;-76
2023/10/02 04:35:02;;;;;;;40.50;19.00;;;;;;;-144.73;100.00;54608.84;5091622;28;20079;-76
2023/10/02 04:37:31;;;;;;;41.25;16.77;;;;;;;-144.73;100.00;54592.44;5114219;28;20038;-76
2023/10/02 04:42:57;;;;;;;43.40;19.25;;;;;;;-144.73;100.00;54596.53;5112998;28;20051;-75
2023/10/02 04:45:25;;;;;;;44.38;18.45;;;;;;;-144.73;100.00;54645.78;5112114;28;20047;-74
2023/10/02 04:47:54;;;;;;;37.08;16.40;;;;;;;-144.73;100.00;54592.44;5090913;28;20036;-74
2023/10/02 04:52:56;;;;;;;45.30;17.85;;;;;;;-144.73;100.00;54559.59;5112225;28;20511;-74
2023/10/02 04:55:41;;;;;;;35.15;17.17;;;;;;;-144.73;100.00;54571.91;5093617;28;20020;-73
2023/10/02 04:58:14;;;;;;;38.13;18.05;;;;;;;-144.73;100.00;54602.69;5112436;28;20118;-74
2023/10/02 05:01:18;;;;;;;40.67;16.65;;;;;;;-144.73;100.00;54559.59;5093092;28;20028;-73
2023/10/02 05:03:28;;;;;;;39.80;18.05;;;;;;;-144.73;100.00;54604.75;5108970;28;20127;-74
2023/10/02 05:05:54;;;;;;;42.42;17.30;;;;;;;-144.73;100.00;54588.31;5096243;28;20059;-74
2023/10/02 05:08:22;;;;;;;38.10;16.80;;;;;;;-144.73;100.00;54596.53;5092264;28;20788;-75
2023/10/02 05:10:56;;;;;;;33.92;16.70;;;;;;;-144.73;100.00;54553.44;5098835;28;20038;-74
2023/10/02 05:16:12;;;;;;;35.90;16.63;;;;;;;-144.73;100.00;54592.44;5112333;28;20028;-74
2023/10/02 05:18:44;;;;;;;44.65;17.05;;;;;;;-144.73;100.00;54547.28;5090422;28;20039;-74
2023/10/02 05:21:17;;;;;;;33.17;16.08;;;;;;;-144.73;100.00;54594.47;5093725;28;20034;-74
2023/10/02 05:23:56;;;;;;;37.10;15.55;;;;;;;-144.73;100.00;54596.53;5094048;28;20114;-74
2023/10/02 05:29:09;;;;;;;37.67;16.00;;;;;;;-144.73;100.00;54584.22;5111191;28;20053;-75
2023/10/02 05:31:36;;;;;;;43.13;16.38;;;;;;;-144.73;100.00;54569.84;5097195;28;20086;-73
2023/10/02 05:34:09;;;;;;;40.90;15.73;;;;;;;-144.73;100.00;54592.44;5092924;28;20084;-73
2023/10/02 05:36:35;;;;;;;31.65;15.07;;;;;;;-144.73;100.00;54578.06;5112663;28;20020;-74
2023/10/02 05:41:47;;;;;;;31.70;15.82;;;;;;;-144.73;100.00;54565.75;5110299;28;20020;-74
2023/10/02 05:44:13;;;;;;;31.65;15.60;;;;;;;-144.73;100.00;54547.28;5092923;28;20035;-74
2023/10/02 05:46:55;;;;;;;34.65;14.50;;;;;;;-144.73;100.00;54610.91;5099000;28;20027;-74
2023/10/02 05:49:24;;;;;;;35.78;15.18;;;;;;;-144.73;100.00;54576.00;5111300;28;20074;-74
2023/10/02 05:51:55;;;;;;;33.72;15.57;;;;;;;-144.73;100.00;54592.44;5093310;28;20030;-74
2023/10/02 05:54:29;;;;;;;38.10;16.98;;;;;;;-144.73;100.00;54617.06;5098889;28;20061;-74
2023/10/02 05:57:14;;;;;;;45.58;16.42;;;;;;;-144.73;100.00;54600.63;5093244;28;20030;-73
2023/10/02 05:59:54;;;;;;;38.42;16.42;;;;;;;-144.73;100.00;54565.75;5107628;28;20024;-75
2023/10/02 06:02:22;;;;;;;38.50;15.60;;;;;;;-144.73;100.00;54539.06;5110744;28;20082;-74
2023/10/02 06:04:49;;;;;;;39.28;15.10;;;;;;;-144.73;100.00;54543.16;5110286;28;20031;-74
2023/10/02 06:10:09;;;;;;;34.05;14.73;;;;;;;-144.73;100.00;54588.31;5110637;28;20031;-74
2023/10/02 06:12:45;;;;;;;35.05;14.57;;;;;;;-144.73;100.00;54584.22;5110027;28;20019;-73
2023/10/02 06:16:12;;;;;;;40.42;14.80;;;;;;;-144.73;100.00;54588.31;5110558;28;20008;-74
2023/10/02 06:18:07;;;;;;;37.65;16.05;;;;;;;-144.73;100.00;54571.91;5093488;28;20036;-74
2023/10/02 06:20:33;;;;;;;40.80;14.63;;;;;;;-144.73;100.00;54596.53;5088628;28;20119;-75
2023/10/02 06:23:19;;;;;;;39.88;15.60;;;;;;;-144.73;100.00;54580.13;5092064;28;20032;-75
2023/10/02 06:25:44;;;;;;;33.33;14.82;;;;;;;-144.73;100.00;54576.00;5110347;28;20024;-75
2023/10/02 06:28:27;;;;;;;38.70;14.35;;;;;;;-144.73;100.00;54612.97;5105448;28;20539;-70
2023/10/02 06:30:54;;;;;;;38.05;15.75;;;;;;;-144.73;100.00;54580.13;5107744;28;20106;-69
2023/10/02 06:33:23;;;;;;;33.80;15.85;;;;;;;-144.73;100.00;54580.13;5104875;28;20065;-69
2023/10/02 06:36:00;;;;;;;45.58;16.20;;;;;;;-144.73;100.00;54555.47;5093610;28;20496;-69
2023/10/02 06:38:32;;;;;;;39.90;15.35;;;;;;;-144.73;100.00;54588.31;5107780;28;20106;-70
2023/10/02 06:40:59;;;;;;;33.92;15.63;;;;;;;-144.73;100.00;54600.63;5085023;28;20021;-68
2023/10/02 06:43:28;;;;;;;34.17;14.25;;;;;;;-144.73;100.00;54576.00;5093342;28;20034;-69
2023/10/02 06:46:09;;;;;;;33.50;14.15;;;;;;;-144.73;100.00;54592.44;5100991;28;20034;-69
2023/10/02 06:48:39;;;;;;;32.47;15.82;;;;;;;-144.73;100.00;54592.44;5074127;28;20028;-70
2023/10/02 06:51:07;;;;;;;35.30;15.02;;;;;;;-144.73;100.00;54573.97;5110196;28;20027;-69
2023/10/02 06:53:33;;;;;;;42.22;15.98;;;;;;;-144.73;100.00;54522.63;5093901;28;20084;-69
2023/10/02 06:55:59;;;;;;;34.15;15.13;;;;;;;-144.73;100.00;54598.59;5094202;27;20080;-68
2023/10/02 06:58:29;;;;;;;34.70;15.35;;;;;;;-144.73;100.00;54571.91;5100199;28;20035;-69
2023/10/02 07:00:55;;;;;;;31.50;15.45;;;;;;;-144.73;100.00;54539.06;5099604;28;20074;-69
2023/10/02 07:03:21;;;;;;;36.95;16.17;;;;;;;-144.73;100.00;54553.44;5096516;28;20094;-69
2023/10/02 07:05:48;;;;;;;41.47;16.42;;;;;;;-144.73;100.00;54563.69;5102255;28;20023;-69
2023/10/02 07:08:26;;;;;;;38.40;15.43;;;;;;;-144.73;100.00;54612.97;5105279;28;20028;-69
2023/10/02 07:10:52;;;;;;;32.03;14.35;;;;;;;-144.73;100.00;54588.31;5070006;28;20077;-69
2023/10/02 07:13:21;;;;;;;35.22;15.88;;;;;;;-144.73;100.00;54590.38;5062453;28;20026;-69
2023/10/02 07:15:47;;;;;;;37.25;14.63;;;;;;;-144.73;100.00;54559.59;5107556;28;20020;-69
2023/10/02 07:18:14;;;;;;;34.38;15.10;;;;;;;-144.73;100.00;54567.81;5108198;28;20042;-69
2023/10/02 07:20:43;;;;;;;37.58;15.93;;;;;;;-144.73;100.00;54600.63;5085661;28;20473;-69
2023/10/02 07:23:19;;;;;;;37.67;16.00;;;;;;;-144.73;100.00;54567.81;5094193;28;20036;-69
2023/10/02 07:25:50;;;;;;;38.08;15.93;;;;;;;-144.73;100.00;54584.22;5091698;28;20028;-69
2023/10/02 07:28:19;;;;;;;39.13;16.00;;;;;;;-144.73;100.00;54608.84;5107097;28;20032;-69
2023/10/02 07:30:45;;;;;;;36.58;16.40;;;;;;;-144.73;100.00;54543.16;5091357;28;20023;-71
2023/10/02 07:33:11;;;;;;;37.50;14.95;;;;;;;-144.73;100.00;54573.97;5107493;28;20059;-69
2023/10/02 07:35:36;;;;;;;39.35;14.45;;;;;;;-144.73;100.00;54539.06;5068104;28;20055;-70
2023/10/02 07:38:02;;;;;;;38.30;15.70;;;;;;;-144.73;100.00;54539.06;5094511;28;20582;-69
2023/10/02 07:40:46;;;;;;;41.65;14.95;;;;;;;-144.73;100.00;54590.38;5095104;28;20433;-69
2023/10/02 07:43:13;;;;;;;31.40;16.50;;;;;;;-144.73;100.00;54576.00;5100854;28;20031;-70
2023/10/02 07:45:39;;;;;;;31.45;14.98;;;;;;;-144.73;100.00;54600.63;5103249;28;20094;-70
2023/10/02 07:48:19;;;;;;;36.58;15.45;;;;;;;-144.73;100.00;54555.47;5094206;28;20043;-70
2023/10/02 07:50:45;;;;;;;31.25;15.80;;;;;;;-144.73;100.00;54539.06;5112103;28;20020;-70
2023/10/02 07:53:12;;;;;;;37.63;15.80;;;;;;;-144.73;100.00;54567.81;5105781;28;20035;-70
2023/10/02 07:55:46;;;;;;;32.38;14.82;;;;;;;-144.73;100.00;54567.81;5107335;28;20040;-70
2023/10/02 07:58:19;;;;;;;32.92;15.77;;;;;;;-144.73;100.00;54571.91;5094542;28;20102;-70
2023/10/02 08:00:49;;;;;;;44.40;16.00;;;;;;;-144.73;100.00;54559.59;5095619;27;20038;-70
2023/10/02 08:03:36;;;;;;;36.08;15.13;;;;;;;-144.73;100.00;54555.47;5105923;28;20038;-70
2023/10/02 08:06:21;;;;;;;32.95;15.68;;;;;;;-144.73;100.00;54526.75;5071416;28;20061;-70
2023/10/02 08:11:52;;;;;;;32.75;13.43;;;;;;;-144.73;100.00;54565.75;5110532;27;20023;-71
2023/10/02 08:14:38;;;;;;;37.35;16.20;;;;;;;-144.73;100.00;54522.63;5108468;27;20051;-71
2023/10/02 08:22:53;;;;;;;35.53;15.35;;;;;;;-144.73;100.00;54510.31;5026195;28;20040;-71
2023/10/02 08:25:23;;;;;;;37.38;14.23;;;;;;;-144.73;100.00;54522.63;5058555;28;20027;-70
2023/10/02 08:27:57;;;;;;;32.53;15.18;;;;;;;-144.73;100.00;54553.44;5115798;27;20023;-70
2023/10/02 08:30:27;;;;;;;40.25;15.57;;;;;;;-144.73;100.00;54569.84;5100251;27;20011;-70
2023/10/02 08:33:06;;;;;;;34.92;16.73;;;;;;;-144.73;100.00;54526.75;5097982;28;20027;-69
2023/10/02 08:35:46;;;;;;;32.60;16.08;;;;;;;-144.73;100.00;54555.47;5099517;27;20050;-70
2023/10/02 08:38:21;;;;;;;31.02;14.68;;;;;;;-144.73;100.00;54518.53;5096522;28;20036;-70
2023/10/02 08:40:57;;;;;;;35.47;16.80;;;;;;;-144.73;100.00;54547.28;5098443;28;20020;-70
2023/10/02 08:43:24;;;;;;;41.58;16.50;;;;;;;-144.73;100.00;54576.00;5096235;27;20031;-70
2023/10/02 08:45:50;;;;;;;39.72;15.25;;;;;;;-144.73;100.00;54543.16;5113976;27;20023;-70
2023/10/02 08:48:19;;;;;;;31.77;15.25;;;;;;;-144.73;100.00;54543.16;5093945;28;20088;-70
2023/10/02 08:50:47;;;;;;;30.30;14.52;;;;;;;-144.73;100.00;54539.06;5114314;27;20026;-70
2023/10/02 08:53:23;;;;;;;44.95;15.50;;;;;;;-144.73;100.00;54530.84;5108047;27;20035;-70
2023/10/02 08:56:21;;;;;;;40.55;16.00;;;;;;;-144.73;100.00;54547.28;5094285;28;20016;-70
2023/10/02 08:58:47;;;;;;;33.00;15.32;;;;;;;-144.73;100.00;54539.06;5090526;28;20081;-70
2023/10/02 09:01:20;;;;;;;36.65;15.02;;;;;;;-144.73;100.00;54539.06;5091753;27;20020;-70
2023/10/02 09:04:21;;;;;;;35.75;16.40;;;;;;;-144.73;100.00;54604.75;5093672;28;20122;-71
2023/10/02 09:06:49;;;;;;;;;;;;;;;-144.73;100.00;54604.75;5097802;27;20019;-70
2023/10/02 09:09:27;;;;;;;35.33;15.65;;;;;;;-144.73;100.00;54522.63;5111839;27;19919;-70
2023/10/02 09:11:59;;;;;;;37.20;17.02;;;;;;;-144.73;100.00;54518.53;5084327;28;20043;-71
2023/10/02 09:17:15;;;;;;;;;;;;;;;-144.73;100.00;54522.63;5082945;27;20024;-70
2023/10/02 09:19:53;;;;;;;37.25;17.20;;;;;;;-144.73;100.00;54539.06;5095075;27;19920;-70
2023/10/02 09:22:20;;;;;;;38.67;15.88;;;;;;;-144.73;100.00;54557.53;5106414;27;20027;-70
2023/10/02 09:24:58;;;;;;;37.22;15.77;;;;;;;-144.73;100.00;54530.84;5107761;27;20038;-70
2023/10/02 09:27:27;;;;;;;40.42;16.17;;;;;;;-144.73;100.00;54539.06;5066782;27;20068;-70
2023/10/02 09:32:49;;;;;;;40.80;16.02;;;;;;;-144.73;100.00;54510.31;5107639;27;20027;-71
2023/10/02 09:35:22;;;;;;;42.25;16.83;;;;;;;-144.73;100.00;54502.13;5111235;27;20042;-72
2023/10/02 09:37:55;;;;;;;37.97;16.25;;;;;;;-144.73;100.00;54502.13;5107574;27;20110;-71
2023/10/02 09:40:53;;;;;;;36.45;15.65;;;;;;;-144.73;100.00;54489.81;5110476;27;20030;-70
2023/10/02 09:43:21;;;;;;;32.95;15.18;;;;;;;-144.73;100.00;54543.16;5106504;27;20516;-70
2023/10/02 09:45:58;;;;;;;36.20;16.30;;;;;;;-144.73;100.00;54539.06;5097096;27;20015;-71
2023/10/02 09:51:21;;;;;;;33.47;16.30;;;;;;;-144.73;100.00;54547.28;5111136;27;20070;-70
2023/10/02 09:54:08;;;;;;;38.08;15.18;;;;;;;-144.73;100.00;54498.00;5093382;27;20027;-70
2023/10/02 09:57:05;;;;;;;36.13;15.73;;;;;;;-144.73;100.00;54539.06;5110542;27;20115;-71
2023/10/02 09:59:48;;;;;;;35.30;16.13;;;;;;;-144.73;100.00;54506.22;5090701;28;20032;-71
2023/10/02 10:07:46;;;;;;;28.20;14.82;;;;;;;-144.73;100.00;54506.22;5107693;27;20066;-71
2023/10/02 10:10:27;;;;;;;38.25;14.57;;;;;;;-144.73;100.00;54489.81;5093475;28;20055;-70
2023/10/02 10:12:58;;;;;;;37.88;15.68;;;;;;;-144.73;100.00;54526.75;5107595;27;20598;-70
2023/10/02 10:15:25;;;;;;;38.80;14.82;;;;;;;-144.73;100.00;54518.53;5109574;27;20023;-70
2023/10/02 10:17:51;;;;;;;38.05;16.00;;;;;;;-144.73;100.00;54498.00;5097205;27;20024;-68
2023/10/02 10:20:25;;;;;;;35.90;15.05;;;;;;;-144.73;100.00;54510.31;5097915;27;20031;-70
2023/10/02 10:22:51;;;;;;;39.22;16.27;;;;;;;-144.73;100.00;54485.69;5091799;27;20024;-70
2023/10/02 10:25:44;;;;;;;35.33;16.17;;;;;;;-144.73;100.00;54512.38;5110672;27;20064;-70
2023/10/02 10:28:26;;;;;;;31.88;14.73;;;;;;;-144.73;100.00;54510.31;5093031;28;20031;-70
2023/10/02 10:30:56;;;;;;;35.53;14.65;;;;;;;-144.73;100.00;54473.38;5094843;28;20043;-70
2023/10/02 10:33:23;;;;;;;35.05;15.30;;;;;;;-144.73;100.00;54506.22;5109474;28;20039;-71
2023/10/02 10:35:52;;;;;;;36.15;15.35;;;;;;;-144.73;100.00;54508.28;5103241;28;20023;-71
2023/10/02 10:41:00;;;;;;;34.47;13.80;;;;;;;-144.73;100.00;54473.38;5110320;27;20054;-69
2023/10/02 10:43:26;;;;;;;35.38;15.70;;;;;;;-144.73;100.00;54483.66;5093769;28;20027;-70
2023/10/02 10:45:54;;;;;;;33.92;15.73;;;;;;;-144.73;100.00;54440.53;5086971;28;20016;-70
2023/10/02 10:48:23;;;;;;;32.33;15.32;;;;;;;-144.73;100.00;54461.06;5108286;28;20024;-71
2023/10/02 10:50:59;;;;;;;26.55;14.27;;;;;;;-144.73;100.00;54473.38;5111434;27;20019;-71
2023/10/02 10:53:28;;;;;;;30.73;14.48;;;;;;;-144.73;100.00;54481.59;5109935;27;20059;-70
2023/10/02 10:55:59;;;;;;;32.42;13.70;;;;;;;-144.73;100.00;54516.47;5108792;27;20042;-71
2023/10/02 10:58:33;;;;;;;;;;;;;;;-144.73;100.00;54477.47;5112616;27;20059;-71
2023/10/02 11:01:02;;;;;;;36.35;15.65;;;;;;;-144.73;100.00;54506.22;5090300;28;19908;-71
2023/10/02 11:03:27;;;;;;;29.92;13.00;;;;;;;-144.73;100.00;54504.16;5108473;28;20038;-70
2023/10/02 11:06:01;;;;;;;31.33;14.32;;;;;;;-144.73;100.00;54473.38;5109783;28;20015;-70
2023/10/02 11:08:28;;;;;;;29.88;13.82;;;;;;;-144.73;100.00;54473.38;5097636;28;20036;-71
2023/10/02 11:11:18;;;;;;;27.58;14.00;;;;;;;-144.73;100.00;54485.69;5091514;28;20047;-70
2023/10/02 11:13:58;;;;;;;29.80;12.52;;;;;;;-144.73;100.00;54481.59;5088797;28;20043;-71
2023/10/02 11:16:34;;;;;;;30.48;12.55;;;;;;;-144.73;100.00;54493.91;5108949;28;20489;-70
2023/10/02 11:22:19;;;;;;;25.95;12.45;;;;;;;-144.73;100.00;54463.13;5102779;28;20022;-71
2023/10/02 11:24:50;;;;;;;29.30;13.70;;;;;;;-144.73;100.00;54489.81;5104808;28;20032;-70
2023/10/02 11:27:18;;;;;;;30.25;13.88;;;;;;;-144.73;100.00;54489.81;5108879;28;20028;-71
2023/10/02 11:30:02;;;;;;;28.52;12.80;;;;;;;-144.73;100.00;54440.53;5103939;28;20039;-70
2023/10/02 11:32:54;;;;;;;25.90;12.23;;;;;;;-144.73;100.00;54477.47;5089448;28;20091;-71
2023/10/02 11:35:20;;;;;;;26.88;13.38;;;;;;;-144.73;100.00;54469.28;5106983;28;20122;-71
2023/10/02 11:37:47;;;;;;;26.13;12.88;;;;;;;-144.73;100.00;54489.81;5107795;28;20020;-71
2023/10/02 11:40:13;;;;;;;29.67;12.70;;;;;;;-144.73;100.00;54481.59;5103629;28;20075;-71
2023/10/02 11:42:40;;;;;;;28.13;12.82;;;;;;;-144.73;100.00;54506.22;5090081;28;20024;-71
2023/10/02 11:45:07;;;;;;;29.35;13.23;;;;;;;-144.73;100.00;54485.69;5094186;28;20103;-71
2023/10/02 11:47:32;;;;;;;26.75;12.35;;;;;;;-144.73;100.00;54504.16;5090012;28;20531;-71
2023/10/02 11:49:57;;;;;;;27.33;12.13;;;;;;;-144.73;100.00;54504.16;5091461;28;20016;-71
2023/10/02 11:52:23;;;;;;;26.50;13.32;;;;;;;-144.73;100.00;54502.13;5090599;28;20031;-71
2023/10/02 11:54:48;;;;;;;30.05;13.57;;;;;;;-144.73;100.00;54473.38;5108543;28;20027;-70
2023/10/02 11:57:14;;;;;;;33.10;13.07;;;;;;;-144.73;100.00;54491.84;5112876;28;20032;-71
2023/10/02 11:59:42;;;;;;;35.05;13.55;;;;;;;-144.73;100.00;54493.91;5081587;28;20115;-71
2023/10/02 12:02:11;;;;;;;35.72;13.80;;;;;;;-144.73;100.00;54498.00;5105388;28;20042;-71
2023/10/02 12:04:40;;;;;;;27.35;12.38;;;;;;;-144.73;100.00;54456.97;5090068;28;20024;-71
2023/10/02 12:07:06;;;;;;;34.13;13.70;;;;;;;-144.73;100.00;54487.75;5107036;28;20118;-71
2023/10/02 12:09:33;;;;;;;30.98;13.40;;;;;;;-144.73;100.00;54465.16;5090649;28;20398;-71
2023/10/02 12:11:59;;;;;;;32.55;14.13;;;;;;;-144.73;100.00;54477.47;5085370;28;20109;-70
2023/10/02 12:14:29;;;;;;;36.90;14.10;;;;;;;-144.73;100.00;54461.06;5108055;28;20038;-70
2023/10/02 12:16:57;;;;;;;28.60;13.70;;;;;;;-144.73;100.00;54473.38;5102434;28;20035;-70